Time;durP1;ratioP1;P1;durP2;ratioP2;P2;SDS_P1;SDS_P2;PMS_P1;PMS_P2;Temp;Humidity;BMP_temperature;BMP_pressure;BME280_temperature;BME280_humidity;BME280_pressure;Samples;Min_cycle;Max_cycle;Signal;HPM_P1;HPM_P2
2022/12/03 07:02:14;;;;;;;;;35.00;30.00;;;;;;;;4808564;24;45475;-57
2022/12/03 07:04:39;;;;;;;;;42.00;31.75;;;;;;;;4701525;30;45576;-57
2022/12/03 07:07:04;;;;;;;;;38.75;36.00;;;;;;;;4700472;30;45441;-57
2022/12/03 07:09:45;;;;;;;;;35.25;28.75;;;;;;;;4667441;30;45598;-57
2022/12/03 07:12:10;;;;;;;;;48.00;34.00;;;;;;;;4700629;30;45619;-57
2022/12/03 07:14:35;;;;;;;;;40.50;31.75;;;;;;;;4699568;30;45713;-58
2022/12/03 07:17:00;;;;;;;;;22.50;21.25;;;;;;;;4702818;30;45654;-58
2022/12/03 07:19:25;;;;;;;;;37.75;30.25;;;;;;;;4699508;30;46156;-57
2022/12/03 07:21:51;;;;;;;;;41.00;28.25;;;;;;;;4694801;30;45456;-57
2022/12/03 07:24:16;;;;;;;;;33.00;29.00;;;;;;;;4702290;30;45556;-57
2022/12/03 07:26:41;;;;;;;;;31.50;30.00;;;;;;;;4703097;30;45300;-57
2022/12/03 07:29:06;;;;;;;;;34.00;27.75;;;;;;;;4695331;30;45885;-58
2022/12/03 07:31:32;;;;;;;;;40.25;31.75;;;;;;;;4699803;30;45365;-58
2022/12/03 07:33:57;;;;;;;;;40.25;32.00;;;;;;;;4703721;30;45412;-57
2022/12/03 07:36:22;;;;;;;;;36.00;27.75;;;;;;;;4702813;30;45355;-57
2022/12/03 07:38:47;;;;;;;;;38.75;30.25;;;;;;;;4703440;30;46137;-57
2022/12/03 07:41:12;;;;;;;;;34.50;25.75;;;;;;;;4702703;30;45229;-57
2022/12/03 07:43:38;;;;;;;;;37.50;28.00;;;;;;;;4702599;30;45139;-57
2022/12/03 07:46:03;;;;;;;;;31.25;25.75;;;;;;;;4703699;30;45326;-57
2022/12/03 07:48:28;;;;;;;;;34.75;28.25;;;;;;;;4702898;30;45377;-57
2022/12/03 07:50:53;;;;;;;;;35.25;29.25;;;;;;;;4702673;30;45319;-57
2022/12/03 07:53:18;;;;;;;;;45.25;29.75;;;;;;;;4702949;30;45444;-57
2022/12/03 07:55:44;;;;;;;;;38.00;29.25;;;;;;;;4702937;30;45385;-57
2022/12/03 07:58:09;;;;;;;;;33.75;32.00;;;;;;;;4698880;30;46530;-58
2022/12/03 08:00:34;;;;;;;;;46.75;34.50;;;;;;;;4697855;30;45444;-58
2022/12/03 08:03:00;;;;;;;;;36.75;32.75;;;;;;;;4703333;30;45390;-58
2022/12/03 08:05:25;;;;;;;;;33.50;28.25;;;;;;;;4702196;30;45226;-58
2022/12/03 08:07:51;;;;;;;;;37.50;33.25;;;;;;;;4700965;30;47102;-58
2022/12/03 08:10:16;;;;;;;;;29.50;28.50;;;;;;;;4700923;30;45389;-58
2022/12/03 08:12:44;;;;;;;;;40.75;30.75;;;;;;;;4692817;30;45473;-58
2022/12/03 08:15:17;;;;;;;;;31.25;26.50;;;;;;;;4696540;30;45337;-58
2022/12/03 08:17:44;;;;;;;;;32.00;25.50;;;;;;;;4700743;30;46329;-58
2022/12/03 08:20:09;;;;;;;;;46.25;32.50;;;;;;;;4701459;30;45479;-58
2022/12/03 08:22:34;;;;;;;;;32.75;28.25;;;;;;;;4701294;30;45753;-58
2022/12/03 08:25:00;;;;;;;;;29.75;29.75;;;;;;;;4703214;30;45380;-58
2022/12/03 08:27:25;;;;;;;;;30.00;22.00;;;;;;;;4701459;30;46205;-58
2022/12/03 08:29:53;;;;;;;;;32.00;29.00;;;;;;;;4702677;30;45397;-58
2022/12/03 08:32:18;;;;;;;;;20.50;19.25;;;;;;;;4701187;30;45326;-60
2022/12/03 08:34:43;;;;;;;;;37.25;27.00;;;;;;;;4702710;30;45478;-58
2022/12/03 08:37:15;;;;;;;;;32.75;32.00;;;;;;;;4702343;30;45357;-58
2022/12/03 08:39:43;;;;;;;;;30.00;30.00;;;;;;;;4703011;30;45390;-58
2022/12/03 08:44:58;;;;;;;;;30.00;27.00;;;;;;;;4702640;30;45226;-58
2022/12/03 08:47:24;;;;;;;;;37.25;29.00;;;;;;;;4701944;30;46244;-58
2022/12/03 08:49:53;;;;;;;;;33.75;25.50;;;;;;;;4701685;30;45314;-58
2022/12/03 08:52:20;;;;;;;;;27.75;23.50;;;;;;;;4702250;30;45407;-59
2022/12/03 08:54:51;;;;;;;;;35.00;28.25;;;;;;;;4702283;30;45483;-59
2022/12/03 08:57:26;;;;;;;;;28.25;26.25;;;;;;;;4684668;30;46997;-59
2022/12/03 09:00:15;;;;;;;;;30.25;23.50;;;;;;;;4694125;30;45558;-59
2022/12/03 09:02:43;;;;;;;;;27.00;22.75;;;;;;;;4689748;30;45492;-59
2022/12/03 09:05:20;;;;;;;;;32.25;25.50;;;;;;;;4699118;30;45332;-59
2022/12/03 09:07:45;;;;;;;;;25.00;22.25;;;;;;;;4702186;30;46288;-58
2022/12/03 09:10:10;;;;;;;;;26.00;22.50;;;;;;;;4701262;30;45765;-58
2022/12/03 09:12:35;;;;;;;;;32.75;27.25;;;;;;;;4702246;30;45432;-59
2022/12/03 09:15:00;;;;;;;;;30.00;23.00;;;;;;;;4702297;30;45632;-58
2022/12/03 09:17:26;;;;;;;;;35.00;25.00;;;;;;;;4701807;30;46133;-58
2022/12/03 09:19:51;;;;;;;;;27.75;22.75;;;;;;;;4700167;30;45490;-58
2022/12/03 09:22:16;;;;;;;;;26.50;24.75;;;;;;;;4695972;30;45436;-59
2022/12/03 09:24:42;;;;;;;;;30.75;23.75;;;;;;;;4702239;30;45507;-59
2022/12/03 09:27:07;;;;;;;;;28.75;23.25;;;;;;;;4691987;30;45434;-58
2022/12/03 09:29:32;;;;;;;;;14.75;13.75;;;;;;;;4701127;30;45550;-58
2022/12/03 09:31:57;;;;;;;;;19.75;19.75;;;;;;;;4701738;30;45292;-58
2022/12/03 09:34:22;;;;;;;;;24.50;23.75;;;;;;;;4704515;30;45458;-58
2022/12/03 09:36:48;;;;;;;;;24.25;20.00;;;;;;;;4708424;30;46295;-58
2022/12/03 09:39:13;;;;;;;;;25.25;23.00;;;;;;;;4700503;30;45447;-58
2022/12/03 09:41:38;;;;;;;;;23.00;19.00;;;;;;;;4704589;30;45307;-58
2022/12/03 09:44:03;;;;;;;;;23.00;22.50;;;;;;;;4704430;30;45396;-59
2022/12/03 09:46:29;;;;;;;;;18.50;16.50;;;;;;;;4704362;30;46881;-59
2022/12/03 09:48:54;;;;;;;;;21.75;21.00;;;;;;;;4705269;30;45313;-58
2022/12/03 09:51:19;;;;;;;;;31.00;25.25;;;;;;;;4703766;30;45551;-59
2022/12/03 09:53:46;;;;;;;;;18.25;14.50;;;;;;;;4704562;30;45342;-59
2022/12/03 09:56:14;;;;;;;;;28.75;24.00;;;;;;;;4704637;30;45293;-59
2022/12/03 09:58:40;;;;;;;;;26.50;24.75;;;;;;;;4709586;30;45404;-58
2022/12/03 10:01:11;;;;;;;;;20.50;16.50;;;;;;;;4698390;30;46193;-58
2022/12/03 10:03:37;;;;;;;;;30.67;20.67;;;;;;;;4695353;30;45300;-58
2022/12/03 10:06:02;;;;;;;;;24.25;20.50;;;;;;;;4704433;30;46126;-58
2022/12/03 10:08:30;;;;;;;;;34.50;22.25;;;;;;;;4704211;30;45262;-57
2022/12/03 10:10:56;;;;;;;;;26.00;16.50;;;;;;;;4704498;30;45404;-58
2022/12/03 10:13:26;;;;;;;;;20.00;19.50;;;;;;;;4704379;30;45295;-58
2022/12/03 10:15:53;;;;;;;;;22.50;19.50;;;;;;;;4693647;30;45390;-58
2022/12/03 10:18:20;;;;;;;;;29.00;22.25;;;;;;;;4703576;30;45430;-58
2022/12/03 10:20:45;;;;;;;;;21.00;17.33;;;;;;;;4704595;30;45421;-58
2022/12/03 10:23:27;;;;;;;;;19.33;15.67;;;;;;;;4704511;30;45402;-58
2022/12/03 10:25:54;;;;;;;;;26.00;22.00;;;;;;;;4704547;30;46163;-58
2022/12/03 10:28:28;;;;;;;;;22.75;21.50;;;;;;;;4704149;30;45369;-58
2022/12/03 10:30:54;;;;;;;;;19.67;18.00;;;;;;;;4704392;30;45384;-58
2022/12/03 10:33:19;;;;;;;;;28.25;24.00;;;;;;;;4703874;30;45501;-58
2022/12/03 10:35:45;;;;;;;;;26.50;22.50;;;;;;;;4704287;30;46090;-58
2022/12/03 10:38:16;;;;;;;;;25.00;24.00;;;;;;;;4703512;30;45342;-58
2022/12/03 10:40:41;;;;;;;;;27.00;25.00;;;;;;;;4704635;30;45401;-58
2022/12/03 10:43:25;;;;;;;;;26.00;19.25;;;;;;;;4704033;30;45353;-57
2022/12/03 10:45:57;;;;;;;;;29.00;21.50;;;;;;;;4703860;30;45330;-57
2022/12/03 10:48:26;;;;;;;;;24.00;19.00;;;;;;;;4703605;30;45355;-58
2022/12/03 10:50:57;;;;;;;;;26.33;20.67;;;;;;;;4703685;30;45672;-58
2022/12/03 10:53:24;;;;;;;;;20.33;19.00;;;;;;;;4703703;30;45556;-58
2022/12/03 10:55:51;;;;;;;;;27.33;21.00;;;;;;;;4703847;30;46297;-58
2022/12/03 10:58:16;;;;;;;;;24.33;22.00;;;;;;;;4707698;30;45460;-58
2022/12/03 11:00:41;;;;;;;;;22.50;19.25;;;;;;;;4704163;30;45519;-58
2022/12/03 11:03:16;;;;;;;;;21.67;17.00;;;;;;;;4703586;30;45704;-58
2022/12/03 11:05:41;;;;;;;;;20.00;18.00;;;;;;;;4703137;30;46179;-58
2022/12/03 11:08:13;;;;;;;;;21.00;20.00;;;;;;;;4703857;30;45292;-58
2022/12/03 11:10:38;;;;;;;;;17.00;15.33;;;;;;;;4698392;30;45361;-58
2022/12/03 11:13:22;;;;;;;;;23.00;18.33;;;;;;;;4687979;30;45271;-58
2022/12/03 11:15:48;;;;;;;;;22.00;18.33;;;;;;;;4699492;30;46209;-59
2022/12/03 11:18:45;;;;;;;;;20.00;20.00;;;;;;;;4697430;30;45367;-58
2022/12/03 11:21:12;;;;;;;;;20.33;20.33;;;;;;;;4694293;30;45384;-59
2022/12/03 11:23:43;;;;;;;;;21.00;17.33;;;;;;;;4695529;30;45412;-59
2022/12/03 11:26:08;;;;;;;;;22.67;20.00;;;;;;;;4698470;30;46119;-59
2022/12/03 11:28:34;;;;;;;;;24.67;20.67;;;;;;;;4703387;30;45406;-58
2022/12/03 11:31:01;;;;;;;;;32.33;22.00;;;;;;;;4696990;30;45413;-59
2022/12/03 11:33:30;;;;;;;;;22.00;18.67;;;;;;;;4700560;30;45410;-59
2022/12/03 11:36:08;;;;;;;;;28.33;21.00;;;;;;;;4698766;30;46235;-59
2022/12/03 11:38:36;;;;;;;;;26.67;20.00;;;;;;;;4702975;30;45297;-58
2022/12/03 11:41:19;;;;;;;;;29.33;24.33;;;;;;;;4698026;30;45444;-59
2022/12/03 11:43:56;;;;;;;;;24.33;19.33;;;;;;;;4699381;30;45556;-59
2022/12/03 11:46:36;;;;;;;;;21.00;17.67;;;;;;;;4702628;30;47207;-59
2022/12/03 11:49:15;;;;;;;;;36.33;27.00;;;;;;;;4697050;30;45466;-58
2022/12/03 11:51:42;;;;;;;;;30.00;24.00;;;;;;;;4702446;30;45375;-58
2022/12/03 11:54:14;;;;;;;;;32.75;27.25;;;;;;;;4695546;30;45642;-58
2022/12/03 11:56:42;;;;;;;;;33.33;25.67;;;;;;;;4702034;30;46388;-58
2022/12/03 11:59:11;;;;;;;;;28.00;24.67;;;;;;;;4701062;30;45500;-55
2022/12/03 12:01:38;;;;;;;;;31.00;26.33;;;;;;;;4696748;30;45461;-58
2022/12/03 12:04:03;;;;;;;;;41.00;29.25;;;;;;;;4702529;30;45293;-58
2022/12/03 12:06:38;;;;;;;;;31.25;28.25;;;;;;;;4698744;30;45941;-58
2022/12/03 12:09:03;;;;;;;;;24.75;24.75;;;;;;;;4700630;30;45978;-59
2022/12/03 12:11:30;;;;;;;;;44.25;37.25;;;;;;;;4692155;30;45905;-59
2022/12/03 12:13:57;;;;;;;;;31.75;29.25;;;;;;;;4701020;30;45356;-59
2022/12/03 12:16:35;;;;;;;;;46.25;36.25;;;;;;;;4699865;30;47431;-59
2022/12/03 12:19:20;;;;;;;;;33.50;29.25;;;;;;;;4699462;30;45429;-59
2022/12/03 12:21:46;;;;;;;;;21.00;21.00;;;;;;;;4701868;30;45671;-59
2022/12/03 12:24:27;;;;;;;;;53.50;42.50;;;;;;;;4701928;30;45487;-58
2022/12/03 12:26:53;;;;;;;;;52.50;40.50;;;;;;;;4700783;30;46383;-58
2022/12/03 12:29:18;;;;;;;;;35.50;30.50;;;;;;;;4701510;30;45562;-58
2022/12/03 12:31:43;;;;;;;;;46.50;39.25;;;;;;;;4679970;30;45433;-58
2022/12/03 12:34:11;;;;;;;;;49.50;37.50;;;;;;;;4702001;30;45365;-57
2022/12/03 12:36:36;;;;;;;;;75.00;53.00;;;;;;;;4698072;30;47324;-58
2022/12/03 12:39:06;;;;;;;;;39.50;36.00;;;;;;;;4701352;30;45290;-57
2022/12/03 12:41:31;;;;;;;;;71.25;52.00;;;;;;;;4701779;30;45817;-58
2022/12/03 12:43:57;;;;;;;;;11.00;3.00;;;;;;;;4701931;30;45388;-57
2022/12/03 12:46:23;;;;;;;;;83.50;69.75;;;;;;;;4701827;30;45515;-58
2022/12/03 12:48:48;;;;;;;;;53.25;40.75;;;;;;;;4701707;30;45380;-58
2022/12/03 12:51:17;;;;;;;;;54.00;41.75;;;;;;;;4694928;30;45504;-58
2022/12/03 12:53:42;;;;;;;;;45.75;40.25;;;;;;;;4698552;30;45687;-58
2022/12/03 12:56:21;;;;;;;;;42.50;37.00;;;;;;;;4702557;30;45221;-58
2022/12/03 12:58:47;;;;;;;;;26.25;19.75;;;;;;;;4702383;30;45629;-58
2022/12/03 13:01:31;;;;;;;;;40.25;34.50;;;;;;;;4685828;30;45372;-59
2022/12/03 13:03:57;;;;;;;;;25.33;25.33;;;;;;;;4698607;30;45264;-58
2022/12/03 13:06:29;;;;;;;;;25.00;19.50;;;;;;;;4698217;30;46620;-58
2022/12/03 13:08:55;;;;;;;;;35.50;31.25;;;;;;;;4697551;30;45292;-59
2022/12/03 13:11:23;;;;;;;;;25.25;21.75;;;;;;;;4701913;30;45379;-58
2022/12/03 13:13:49;;;;;;;;;30.00;26.50;;;;;;;;4701351;30;45738;-58
2022/12/03 13:16:30;;;;;;;;;25.25;22.25;;;;;;;;4701455;30;45482;-61
2022/12/03 13:18:57;;;;;;;;;27.00;22.67;;;;;;;;4701541;30;45431;-58
2022/12/03 13:21:37;;;;;;;;;31.00;23.00;;;;;;;;4700994;30;45330;-58
2022/12/03 13:24:18;;;;;;;;;26.67;20.67;;;;;;;;4702292;30;45468;-58
2022/12/03 13:26:43;;;;;;;;;24.67;21.33;;;;;;;;4701556;30;47316;-58
2022/12/03 13:29:17;;;;;;;;;30.75;24.25;;;;;;;;4693233;30;45658;-58
2022/12/03 13:31:51;;;;;;;;;30.75;28.75;;;;;;;;4689771;30;45543;-58
2022/12/03 13:34:19;;;;;;;;;46.00;38.50;;;;;;;;4699661;30;45252;-58
2022/12/03 13:36:45;;;;;;;;;34.75;32.50;;;;;;;;4697307;30;46320;-58
2022/12/03 13:39:34;;;;;;;;;47.00;32.25;;;;;;;;4692111;30;45545;-59
2022/12/03 13:42:37;;;;;;;;;37.00;32.00;;;;;;;;4691265;30;45397;-59
2022/12/03 13:45:14;;;;;;;;;40.25;35.25;;;;;;;;4700360;30;45292;-59
2022/12/03 13:47:40;;;;;;;;;42.75;36.75;;;;;;;;4700054;30;47451;-58
2022/12/03 13:50:17;;;;;;;;;44.75;38.00;;;;;;;;4690372;30;46112;-59
2022/12/03 13:52:43;;;;;;;;;31.75;27.50;;;;;;;;4680321;30;46548;-59
2022/12/03 13:55:10;;;;;;;;;49.00;38.75;;;;;;;;4700753;30;45493;-60
2022/12/03 13:57:35;;;;;;;;;31.50;26.75;;;;;;;;4699336;30;46404;-59
2022/12/03 14:00:00;;;;;;;;;63.50;52.25;;;;;;;;4699818;30;45562;-60
2022/12/03 14:02:25;;;;;;;;;57.50;46.50;;;;;;;;4694286;30;45547;-59
2022/12/03 14:04:51;;;;;;;;;36.75;33.25;;;;;;;;4698826;30;45479;-59
2022/12/03 14:07:16;;;;;;;;;39.25;33.50;;;;;;;;4689757;30;46787;-59
2022/12/03 14:09:41;;;;;;;;;35.00;31.75;;;;;;;;4701337;30;45387;-59
2022/12/03 14:12:25;;;;;;;;;28.00;27.00;;;;;;;;4701768;30;45456;-59
2022/12/03 14:14:50;;;;;;;;;27.75;27.25;;;;;;;;4701379;30;45303;-59
2022/12/03 14:17:16;;;;;;;;;41.50;35.25;;;;;;;;4700659;30;46135;-59
2022/12/03 14:19:41;;;;;;;;;33.50;28.00;;;;;;;;4702201;30;46079;-59
2022/12/03 14:22:08;;;;;;;;;45.25;36.25;;;;;;;;4704393;30;45408;-59
2022/12/03 14:24:33;;;;;;;;;30.25;26.00;;;;;;;;4704298;30;45318;-59
2022/12/03 14:26:59;;;;;;;;;22.00;20.25;;;;;;;;4704379;30;45598;-59
2022/12/03 14:29:24;;;;;;;;;26.33;22.33;;;;;;;;4704000;30;45440;-59
2022/12/03 14:31:49;;;;;;;;;32.50;30.00;;;;;;;;4701136;30;45405;-59
2022/12/03 14:34:14;;;;;;;;;26.33;22.33;;;;;;;;4704282;30;45294;-59
2022/12/03 14:36:40;;;;;;;;;28.00;24.67;;;;;;;;4704000;30;45468;-60
2022/12/03 14:39:05;;;;;;;;;27.00;20.67;;;;;;;;4704070;30;45218;-60
2022/12/03 14:44:14;;;;;;;;;24.33;19.67;;;;;;;;4704237;30;45460;-60
2022/12/03 14:46:39;;;;;;;;;21.00;18.33;;;;;;;;4702360;30;45408;-59
2022/12/03 14:49:04;;;;;;;;;24.75;21.00;;;;;;;;4703016;30;45241;-58
2022/12/03 14:51:29;;;;;;;;;20.25;17.50;;;;;;;;4702928;30;45336;-59
2022/12/03 14:53:54;;;;;;;;;24.75;20.50;;;;;;;;4704517;30;45147;-60
2022/12/03 14:56:19;;;;;;;;;20.67;19.00;;;;;;;;4699970;30;45317;-60
2022/12/03 14:58:45;;;;;;;;;20.33;19.33;;;;;;;;4699258;30;45155;-59
2022/12/03 15:01:10;;;;;;;;;16.33;16.33;;;;;;;;4703223;30;45217;-60
2022/12/03 15:03:35;;;;;;;;;27.25;23.00;;;;;;;;4703654;30;45176;-60
2022/12/03 15:06:00;;;;;;;;;22.50;18.00;;;;;;;;4703758;30;46285;-59
2022/12/03 15:08:26;;;;;;;;;20.33;19.67;;;;;;;;4703173;30;45564;-60
2022/12/03 15:10:52;;;;;;;;;26.00;23.33;;;;;;;;4704105;30;45321;-60
2022/12/03 15:13:17;;;;;;;;;19.67;16.00;;;;;;;;4703288;30;45385;-59
2022/12/03 15:15:42;;;;;;;;;18.67;15.33;;;;;;;;4703562;30;45506;-59
2022/12/03 15:18:07;;;;;;;;;28.33;19.33;;;;;;;;4702846;30;45479;-59
2022/12/03 15:20:34;;;;;;;;;25.00;20.67;;;;;;;;4699322;30;45433;-59
2022/12/03 15:22:59;;;;;;;;;26.75;24.50;;;;;;;;4703862;30;45380;-59
2022/12/03 15:25:24;;;;;;;;;25.50;20.75;;;;;;;;4703147;30;46014;-60
2022/12/03 15:27:50;;;;;;;;;22.75;21.25;;;;;;;;4699896;30;45488;-60
2022/12/03 15:30:15;;;;;;;;;27.00;21.25;;;;;;;;4702304;30;45685;-60
2022/12/03 15:32:40;;;;;;;;;22.25;21.00;;;;;;;;4702806;30;45429;-59
2022/12/03 15:35:06;;;;;;;;;29.67;23.67;;;;;;;;4703388;30;45526;-59
2022/12/03 15:37:31;;;;;;;;;20.25;20.00;;;;;;;;4702325;30;46006;-60
2022/12/03 15:39:57;;;;;;;;;22.67;18.33;;;;;;;;4703398;30;45520;-60
2022/12/03 15:42:22;;;;;;;;;31.50;21.75;;;;;;;;4703054;30;45662;-60
2022/12/03 15:44:47;;;;;;;;;19.75;17.50;;;;;;;;4703195;30;46034;-59
2022/12/03 15:47:12;;;;;;;;;20.33;18.00;;;;;;;;4702936;30;45419;-60
2022/12/03 15:49:37;;;;;;;;;20.67;18.67;;;;;;;;4702878;30;45286;-60
2022/12/03 15:52:03;;;;;;;;;20.33;20.00;;;;;;;;4703119;30;45338;-60
2022/12/03 15:54:28;;;;;;;;;14.00;12.00;;;;;;;;4702775;30;46201;-60
2022/12/03 15:56:53;;;;;;;;;24.25;19.50;;;;;;;;4702310;30;45489;-60
2022/12/03 15:59:19;;;;;;;;;24.00;20.33;;;;;;;;4702015;30;45406;-60
2022/12/03 16:01:44;;;;;;;;;22.75;18.75;;;;;;;;4694291;30;45426;-60
2022/12/03 16:04:09;;;;;;;;;20.25;18.25;;;;;;;;4703075;30;46208;-60
2022/12/03 16:06:34;;;;;;;;;23.50;20.00;;;;;;;;4699787;30;45367;-60
2022/12/03 16:08:59;;;;;;;;;14.00;12.50;;;;;;;;4703272;30;45391;-60
2022/12/03 16:11:24;;;;;;;;;18.00;18.00;;;;;;;;4699825;30;45309;-60
2022/12/03 16:13:50;;;;;;;;;26.50;20.00;;;;;;;;4703027;30;45695;-60
2022/12/03 16:16:15;;;;;;;;;22.50;20.25;;;;;;;;4701003;30;45269;-60
2022/12/03 16:18:40;;;;;;;;;29.25;26.25;;;;;;;;4702381;30;45263;-60
2022/12/03 16:21:05;;;;;;;;;25.00;22.75;;;;;;;;4702257;30;45286;-60
2022/12/03 16:23:30;;;;;;;;;25.00;19.00;;;;;;;;4702530;30;45614;-60
2022/12/03 16:25:55;;;;;;;;;27.75;25.50;;;;;;;;4702608;30;45788;-60
2022/12/03 16:28:21;;;;;;;;;25.00;24.67;;;;;;;;4702592;30;45302;-59
2022/12/03 16:30:46;;;;;;;;;23.00;20.00;;;;;;;;4702261;30;45673;-59
2022/12/03 16:33:11;;;;;;;;;28.75;25.25;;;;;;;;4702498;30;45343;-60
2022/12/03 16:35:36;;;;;;;;;26.25;24.75;;;;;;;;4685894;30;45255;-60
2022/12/03 16:38:02;;;;;;;;;27.25;25.50;;;;;;;;4701615;30;45298;-60
2022/12/03 16:40:27;;;;;;;;;25.00;24.67;;;;;;;;4701871;30;45285;-60
2022/12/03 16:42:52;;;;;;;;;33.00;24.00;;;;;;;;4702174;30;45483;-60
2022/12/03 16:47:45;;;;;;;;;24.75;20.25;;;;;;;;4702316;30;45401;-60
2022/12/03 16:50:11;;;;;;;;;24.25;22.75;;;;;;;;4701972;30;45403;-62
2022/12/03 16:52:36;;;;;;;;;34.00;25.75;;;;;;;;4684597;30;45941;-59
2022/12/03 16:55:01;;;;;;;;;33.25;25.75;;;;;;;;4702030;30;45344;-59
2022/12/03 16:57:27;;;;;;;;;33.75;27.75;;;;;;;;4698255;30;45430;-60
2022/12/03 16:59:52;;;;;;;;;27.00;25.33;;;;;;;;4699525;30;45344;-60
2022/12/03 17:02:17;;;;;;;;;25.00;20.00;;;;;;;;4701368;30;45497;-60
2022/12/03 17:04:42;;;;;;;;;23.50;20.25;;;;;;;;4701722;30;45415;-59
2022/12/03 17:07:07;;;;;;;;;23.75;23.25;;;;;;;;4702508;30;45367;-59
2022/12/03 17:09:33;;;;;;;;;27.25;24.75;;;;;;;;4701852;30;45714;-61
2022/12/03 17:11:58;;;;;;;;;21.00;19.25;;;;;;;;4702133;30;45569;-59
2022/12/03 17:14:23;;;;;;;;;29.25;26.75;;;;;;;;4701716;30;45975;-59
2022/12/03 17:16:48;;;;;;;;;25.00;23.25;;;;;;;;4702231;30;45652;-59
2022/12/03 17:19:13;;;;;;;;;28.00;23.75;;;;;;;;4701601;30;46380;-59
2022/12/03 17:21:39;;;;;;;;;38.50;30.00;;;;;;;;4701752;30;46220;-59
2022/12/03 17:24:04;;;;;;;;;40.00;32.00;;;;;;;;4702092;30;45207;-59
2022/12/03 17:26:29;;;;;;;;;35.50;30.00;;;;;;;;4701190;30;45278;-59
2022/12/03 17:28:54;;;;;;;;;30.75;19.25;;;;;;;;4699403;30;45229;-59
2022/12/03 17:31:20;;;;;;;;;30.25;28.25;;;;;;;;4701461;30;46007;-59
2022/12/03 17:33:45;;;;;;;;;24.25;21.50;;;;;;;;4701894;30;45403;-59
2022/12/03 17:36:10;;;;;;;;;30.00;24.00;;;;;;;;4701741;30;45529;-59
2022/12/03 17:38:35;;;;;;;;;29.00;26.00;;;;;;;;4697697;30;45664;-60
2022/12/03 17:41:00;;;;;;;;;21.50;21.00;;;;;;;;4676806;30;46845;-59
2022/12/03 17:43:26;;;;;;;;;31.75;27.75;;;;;;;;4698881;30;45367;-59
2022/12/03 17:45:51;;;;;;;;;27.00;24.50;;;;;;;;4699579;30;45509;-59
2022/12/03 17:48:16;;;;;;;;;26.25;20.75;;;;;;;;4693524;30;45364;-59
2022/12/03 17:50:44;;;;;;;;;27.25;22.50;;;;;;;;4694202;30;45738;-63
2022/12/03 17:53:10;;;;;;;;;24.50;21.50;;;;;;;;4691763;30;45365;-59
2022/12/03 17:55:35;;;;;;;;;23.00;19.00;;;;;;;;4702869;30;45276;-59
2022/12/03 17:58:01;;;;;;;;;23.50;19.75;;;;;;;;4708826;30;45401;-59
2022/12/03 18:00:26;;;;;;;;;20.25;18.00;;;;;;;;4697671;30;46101;-60
2022/12/03 18:02:51;;;;;;;;;23.00;19.00;;;;;;;;4702767;30;45352;-60
2022/12/03 18:05:17;;;;;;;;;28.00;25.00;;;;;;;;4703559;30;45690;-60
2022/12/03 18:07:42;;;;;;;;;31.25;24.25;;;;;;;;4704113;30;45423;-58
2022/12/03 18:10:07;;;;;;;;;21.33;21.33;;;;;;;;4695917;30;45465;-59
2022/12/03 18:12:32;;;;;;;;;24.00;20.33;;;;;;;;4678088;30;45578;-59
2022/12/03 18:14:58;;;;;;;;;21.25;21.25;;;;;;;;4700477;30;45652;-59
2022/12/03 18:20:26;;;;;;;;;23.67;18.33;;;;;;;;4696999;30;45491;-59
2022/12/03 18:22:51;;;;;;;;;29.75;25.50;;;;;;;;4698443;30;45788;-59
2022/12/03 18:25:17;;;;;;;;;32.50;22.50;;;;;;;;4696011;30;45419;-59
2022/12/03 18:27:42;;;;;;;;;29.00;23.33;;;;;;;;4695621;30;45713;-72
2022/12/03 18:30:07;;;;;;;;;34.25;29.50;;;;;;;;4694601;30;45477;-73
2022/12/03 18:32:32;;;;;;;;;28.00;23.00;;;;;;;;4702778;30;45241;-78
2022/12/03 18:34:58;;;;;;;;;27.33;23.67;;;;;;;;4697166;30;45637;-77
2022/12/03 18:37:27;;;;;;;;;35.00;26.00;;;;;;;;4691680;30;45571;-70
2022/12/03 18:39:52;;;;;;;;;26.33;21.67;;;;;;;;4702255;30;45376;-67
2022/12/03 18:42:18;;;;;;;;;27.75;24.50;;;;;;;;4699330;30;45586;-69
2022/12/03 18:44:44;;;;;;;;;26.75;23.50;;;;;;;;4696329;30;45468;-67
2022/12/03 18:47:11;;;;;;;;;32.00;25.00;;;;;;;;4700365;30;45500;-67
2022/12/03 18:49:36;;;;;;;;;25.75;21.50;;;;;;;;4698575;30;45400;-68
2022/12/03 18:52:01;;;;;;;;;33.50;24.50;;;;;;;;4697060;30;45572;-66
2022/12/03 18:54:26;;;;;;;;;29.50;25.00;;;;;;;;4696805;30;45672;-64
2022/12/03 18:56:52;;;;;;;;;28.75;24.50;;;;;;;;4698094;30;45548;-57
2022/12/03 18:59:17;;;;;;;;;32.50;28.00;;;;;;;;4701895;30;45933;-57
2022/12/03 19:01:42;;;;;;;;;36.25;32.50;;;;;;;;4702659;30;45408;-63
2022/12/03 19:04:08;;;;;;;;;28.75;26.50;;;;;;;;4701537;30;45450;-63
2022/12/03 19:06:33;;;;;;;;;31.25;28.00;;;;;;;;4698324;30;45440;-60
2022/12/03 19:08:58;;;;;;;;;28.25;23.25;;;;;;;;4699223;30;46948;-61
2022/12/03 19:11:24;;;;;;;;;33.25;29.75;;;;;;;;4695694;30;47963;-61
2022/12/03 19:13:50;;;;;;;;;26.25;22.25;;;;;;;;4694249;30;45468;-67
2022/12/03 19:16:15;;;;;;;;;27.75;24.25;;;;;;;;4696745;30;45500;-68
2022/12/03 19:18:41;;;;;;;;;30.25;27.75;;;;;;;;4699652;30;46908;-68
2022/12/03 19:21:11;;;;;;;;;31.75;23.00;;;;;;;;4698641;30;45537;-69
2022/12/03 19:23:36;;;;;;;;;33.50;29.50;;;;;;;;4700171;30;45972;-70
2022/12/03 19:26:03;;;;;;;;;31.00;26.00;;;;;;;;4695278;30;45763;-69
2022/12/03 19:28:28;;;;;;;;;31.25;28.75;;;;;;;;4676153;30;47376;-70
2022/12/03 19:30:54;;;;;;;;;36.75;29.75;;;;;;;;4702047;30;45414;-70
2022/12/03 19:33:20;;;;;;;;;26.75;21.75;;;;;;;;4700641;30;45417;-70
2022/12/03 19:35:45;;;;;;;;;28.00;23.33;;;;;;;;4694059;30;46381;-70
2022/12/03 19:38:10;;;;;;;;;30.00;24.25;;;;;;;;4690725;30;45925;-70
2022/12/03 19:40:35;;;;;;;;;43.50;33.50;;;;;;;;4695725;30;45278;-70
2022/12/03 19:43:00;;;;;;;;;30.75;28.25;;;;;;;;4701195;30;45259;-70
2022/12/03 19:45:26;;;;;;;;;28.25;28.25;;;;;;;;4692302;30;45326;-70
2022/12/03 19:47:51;;;;;;;;;35.25;31.00;;;;;;;;4696042;30;45381;-71
2022/12/03 19:50:16;;;;;;;;;36.50;33.50;;;;;;;;4695079;30;45309;-70
2022/12/03 19:52:41;;;;;;;;;31.00;27.25;;;;;;;;4701489;30;45519;-70
2022/12/03 19:55:07;;;;;;;;;24.00;20.50;;;;;;;;4699425;30;45417;-69
2022/12/03 19:57:32;;;;;;;;;27.00;25.00;;;;;;;;4690685;30;46088;-70
2022/12/03 19:59:57;;;;;;;;;26.00;22.75;;;;;;;;4702177;30;45883;-69
2022/12/03 20:02:22;;;;;;;;;36.00;26.75;;;;;;;;4687093;30;45532;-70
2022/12/03 20:04:48;;;;;;;;;29.75;25.50;;;;;;;;4703495;30;45746;-70
2022/12/03 20:07:13;;;;;;;;;30.00;26.25;;;;;;;;4703084;30;46146;-70
2022/12/03 20:09:38;;;;;;;;;30.25;23.50;;;;;;;;4703251;30;45325;-69
2022/12/03 20:12:03;;;;;;;;;32.25;28.75;;;;;;;;4702474;30;45462;-70
2022/12/03 20:14:29;;;;;;;;;32.00;28.00;;;;;;;;4689989;30;45675;-69
2022/12/03 20:16:54;;;;;;;;;31.00;29.00;;;;;;;;4690301;30;46219;-70
2022/12/03 20:19:20;;;;;;;;;29.25;25.75;;;;;;;;4701292;30;45355;-70
2022/12/03 20:21:45;;;;;;;;;30.50;25.50;;;;;;;;4692457;30;45520;-70
2022/12/03 20:24:14;;;;;;;;;41.50;34.25;;;;;;;;4702475;30;45316;-70
2022/12/03 20:26:40;;;;;;;;;42.75;33.50;;;;;;;;4701606;30;46131;-69
2022/12/03 20:29:05;;;;;;;;;32.75;27.75;;;;;;;;4701967;30;45217;-69
2022/12/03 20:31:30;;;;;;;;;27.00;27.00;;;;;;;;4705008;30;45427;-70
2022/12/03 20:33:57;;;;;;;;;35.25;27.00;;;;;;;;4702119;30;45364;-70
2022/12/03 20:36:22;;;;;;;;;34.50;23.00;;;;;;;;4701011;30;45371;-69
2022/12/03 20:38:47;;;;;;;;;28.25;24.50;;;;;;;;4699727;30;45527;-70
2022/12/03 20:41:14;;;;;;;;;21.25;20.25;;;;;;;;4699031;30;45551;-70
2022/12/03 20:43:39;;;;;;;;;43.00;34.00;;;;;;;;4699830;30;45444;-70
2022/12/03 20:46:15;;;;;;;;;29.75;28.25;;;;;;;;4698666;30;46202;-69
2022/12/03 20:48:41;;;;;;;;;34.75;29.25;;;;;;;;4692822;30;45628;-70
2022/12/03 20:51:07;;;;;;;;;37.00;24.50;;;;;;;;4697543;30;45449;-70
2022/12/03 20:53:33;;;;;;;;;32.50;23.75;;;;;;;;4692703;30;45520;-70
2022/12/03 20:55:59;;;;;;;;;27.50;20.50;;;;;;;;4693716;30;46055;-69
2022/12/03 20:58:24;;;;;;;;;33.25;26.00;;;;;;;;4698936;30;45401;-69
2022/12/03 21:00:49;;;;;;;;;29.00;19.25;;;;;;;;4699970;30;45310;-69
2022/12/03 21:03:14;;;;;;;;;30.75;27.25;;;;;;;;4699667;30;45562;-69
2022/12/03 21:05:41;;;;;;;;;35.75;30.25;;;;;;;;4702171;30;45420;-69
2022/12/03 21:08:06;;;;;;;;;31.50;26.75;;;;;;;;4700955;30;45301;-69
2022/12/03 21:10:34;;;;;;;;;30.75;27.00;;;;;;;;4701164;30;45557;-69
2022/12/03 21:12:59;;;;;;;;;33.00;26.75;;;;;;;;4700611;30;45837;-69
2022/12/03 21:15:25;;;;;;;;;27.25;24.25;;;;;;;;4701105;30;46213;-69
2022/12/03 21:17:50;;;;;;;;;28.00;22.75;;;;;;;;4699996;30;45344;-69
2022/12/03 21:20:15;;;;;;;;;30.25;23.50;;;;;;;;4700990;30;45448;-70
2022/12/03 21:22:41;;;;;;;;;28.25;26.50;;;;;;;;4700622;30;45580;-70
2022/12/03 21:25:06;;;;;;;;;30.00;26.50;;;;;;;;4687329;30;45977;-69
2022/12/03 21:27:31;;;;;;;;;32.00;28.75;;;;;;;;4698124;30;45477;-69